createdAt,value
2019-03-24T00:02:09.916Z,117.20
2019-03-24T00:04:38.959Z,117.57
2019-03-24T00:07:08.181Z,114.80
2019-03-24T00:09:40.591Z,124.77
2019-03-24T00:12:09.624Z,107.87
2019-03-24T00:14:39.172Z,108.60
2019-03-24T00:17:08.300Z,112.97
2019-03-24T00:19:37.387Z,107.30
2019-03-24T00:22:06.447Z,115.57
2019-03-24T00:24:35.559Z,112.43
2019-03-24T00:27:04.808Z,112.77
2019-03-24T00:29:33.845Z,104.47
2019-03-24T00:32:02.899Z,114.57
2019-03-24T00:34:32.068Z,121.87
2019-03-24T00:37:01.085Z,121.53
2019-03-24T00:39:30.697Z,119.47
2019-03-24T00:42:00.134Z,115.90
2019-03-24T00:44:29.248Z,110.43
2019-03-24T00:46:58.278Z,111.27
2019-03-24T00:49:27.410Z,112.80
2019-03-24T00:51:57.100Z,119.47
2019-03-24T00:54:26.327Z,118.97
2019-03-24T00:56:55.507Z,122.93
2019-03-24T00:59:24.573Z,122.53
2019-03-24T01:01:53.662Z,127.93
2019-03-24T01:04:22.701Z,122.20
2019-03-24T01:06:52.107Z,130.43
2019-03-24T01:09:21.246Z,117.23
2019-03-24T01:11:50.392Z,121.77
2019-03-24T01:14:19.468Z,116.70
2019-03-24T01:16:48.616Z,112.07
2019-03-24T01:19:17.675Z,119.57
2019-03-24T01:21:47.241Z,107.70
2019-03-24T01:24:16.978Z,116.30
2019-03-24T01:26:46.701Z,117.90
2019-03-24T01:29:19.599Z,126.17
2019-03-24T01:31:48.639Z,116.57
2019-03-24T01:34:17.807Z,128.73
2019-03-24T01:36:46.965Z,121.57
2019-03-24T01:39:18.987Z,114.67
2019-03-24T01:41:54.163Z,117.63
2019-03-24T01:44:23.353Z,129.50
2019-03-24T01:46:52.509Z,121.87
2019-03-24T01:49:21.558Z,122.83
2019-03-24T01:51:50.686Z,111.77
2019-03-24T01:54:19.723Z,128.33
2019-03-24T01:56:49.378Z,114.07
2019-03-24T01:59:18.522Z,122.30
2019-03-24T02:01:47.661Z,117.47
2019-03-24T02:04:16.875Z,122.50
2019-03-24T02:06:45.937Z,128.10
2019-03-24T02:09:16.494Z,120.10
2019-03-24T02:11:45.547Z,124.20
2019-03-24T02:14:14.696Z,134.63
2019-03-24T02:16:43.884Z,124.83
2019-03-24T02:19:16.329Z,124.23
2019-03-24T02:21:45.443Z,114.40
2019-03-24T02:24:15.556Z,124.30
2019-03-24T02:26:45.263Z,117.57
2019-03-24T02:29:14.974Z,127.90
2019-03-24T02:31:44.009Z,117.20
2019-03-24T02:34:15.616Z,124.90
2019-03-24T02:36:45.075Z,111.20
2019-03-24T02:39:14.265Z,114.00
2019-03-24T02:41:43.383Z,118.33
2019-03-24T02:44:12.861Z,118.97
2019-03-24T02:46:41.924Z,111.07
2019-03-24T02:49:13.905Z,111.93
2019-03-24T02:51:43.428Z,111.07
2019-03-24T02:54:12.453Z,109.27
2019-03-24T02:56:41.976Z,110.10
2019-03-24T02:59:11.084Z,115.77
2019-03-24T03:01:40.219Z,106.50
2019-03-24T03:04:09.847Z,108.53
2019-03-24T03:06:39.050Z,100.07
2019-03-24T03:09:08.122Z,116.77
2019-03-24T03:11:37.650Z,106.03
2019-03-24T03:14:06.780Z,87.87
2019-03-24T03:16:38.653Z,117.27
2019-03-24T03:19:08.154Z,97.10
2019-03-24T03:21:37.636Z,84.03
2019-03-24T03:24:06.730Z,99.80
2019-03-24T03:26:35.755Z,105.50
2019-03-24T03:29:04.871Z,94.57
2019-03-24T03:31:33.967Z,90.17
2019-03-24T03:34:03.681Z,97.63
2019-03-24T03:36:33.185Z,85.87
2019-03-24T03:39:02.790Z,91.23
2019-03-24T03:41:31.961Z,60.40
2019-03-24T03:44:00.981Z,89.97
2019-03-24T03:46:30.166Z,98.63
2019-03-24T03:48:59.244Z,85.67
2019-03-24T03:51:28.306Z,102.00
2019-03-24T03:53:59.156Z,102.67
2019-03-24T03:56:28.560Z,90.63
2019-03-24T03:58:57.685Z,96.73
2019-03-24T04:01:28.009Z,95.97
2019-03-24T04:03:56.999Z,92.87
2019-03-24T04:06:26.048Z,84.27
2019-03-24T04:08:55.086Z,78.97
2019-03-24T04:11:24.297Z,72.70
2019-03-24T04:13:53.342Z,40.67
2019-03-24T04:16:22.546Z,62.17
2019-03-24T04:18:51.586Z,54.83
2019-03-24T04:21:22.681Z,53.67
2019-03-24T04:23:51.730Z,36.60
2019-03-24T04:26:21.385Z,51.43
2019-03-24T04:28:50.382Z,43.17
2019-03-24T04:31:19.423Z,49.40
2019-03-24T04:33:48.601Z,58.67
2019-03-24T04:36:17.647Z,45.57
2019-03-24T04:38:47.411Z,45.43
2019-03-24T04:41:16.531Z,50.53
2019-03-24T04:43:46.139Z,52.57
2019-03-24T04:46:15.577Z,38.90
2019-03-24T04:48:44.614Z,44.30
2019-03-24T04:51:13.703Z,47.90
2019-03-24T04:53:43.142Z,50.17
2019-03-24T04:56:12.362Z,50.63
2019-03-24T04:58:41.424Z,38.47
2019-03-24T05:01:10.535Z,42.63
2019-03-24T05:03:40.143Z,51.00
2019-03-24T05:06:09.327Z,51.13
2019-03-24T05:08:38.407Z,31.90
2019-03-24T05:11:07.523Z,45.30
2019-03-24T05:13:36.648Z,49.67
2019-03-24T05:16:05.676Z,53.73
2019-03-24T05:18:35.201Z,47.07
2019-03-24T05:21:04.238Z,50.20
2019-03-24T05:23:33.468Z,45.23
2019-03-24T05:26:02.505Z,49.63
2019-03-24T05:28:31.599Z,55.90
2019-03-24T05:31:00.711Z,51.77
2019-03-24T05:33:29.756Z,55.07
2019-03-24T05:35:59.397Z,56.37
2019-03-24T05:38:28.481Z,50.20
2019-03-24T05:40:57.521Z,51.03
2019-03-24T05:43:26.520Z,63.83
2019-03-24T05:45:56.555Z,52.73
2019-03-24T05:48:25.708Z,56.00
2019-03-24T05:50:54.749Z,58.50
2019-03-24T05:53:23.752Z,54.60
2019-03-24T05:55:53.190Z,52.83
2019-03-24T05:58:22.424Z,43.13
2019-03-24T06:00:51.516Z,26.60
2019-03-24T06:03:20.551Z,45.13
2019-03-24T06:05:49.667Z,51.37
2019-03-24T06:08:19.172Z,35.50
2019-03-24T06:10:48.187Z,54.87
2019-03-24T06:13:17.305Z,42.37
2019-03-24T06:15:46.803Z,53.90
2019-03-24T06:18:16.003Z,51.23
2019-03-24T06:20:45.447Z,33.63
2019-03-24T06:23:14.465Z,49.87
2019-03-24T06:25:44.123Z,37.53
2019-03-24T06:28:13.237Z,46.43
2019-03-24T06:30:42.969Z,39.07
2019-03-24T06:33:13.741Z,62.80
2019-03-24T06:35:42.917Z,47.63
2019-03-24T06:38:12.619Z,53.27
2019-03-24T06:40:41.792Z,45.03
2019-03-24T06:43:16.990Z,48.73
2019-03-24T06:45:47.132Z,32.43
2019-03-24T06:48:18.905Z,56.33
2019-03-24T06:50:47.943Z,51.13
2019-03-24T06:53:17.302Z,49.73
2019-03-24T06:55:46.997Z,49.03
2019-03-24T06:58:16.203Z,48.67
2019-03-24T07:00:45.776Z,53.03
2019-03-24T07:03:23.957Z,47.97
2019-03-24T07:05:53.042Z,45.63
2019-03-24T07:08:22.157Z,49.73
2019-03-24T07:10:52.275Z,42.50
2019-03-24T07:13:30.488Z,42.10
2019-03-24T07:15:54.168Z,41.70
2019-03-24T07:18:25.448Z,37.80
2019-03-24T07:20:56.712Z,49.87
2019-03-24T07:23:32.002Z,34.37
2019-03-24T07:26:01.213Z,36.30
2019-03-24T07:28:30.313Z,49.70
2019-03-24T07:31:01.218Z,38.83
2019-03-24T07:33:32.243Z,43.60
2019-03-24T07:36:01.299Z,36.60
2019-03-24T07:38:30.409Z,47.43
2019-03-24T07:40:59.523Z,56.93
2019-03-24T07:43:30.100Z,53.77
2019-03-24T07:45:59.361Z,53.87
2019-03-24T07:48:28.614Z,41.43
2019-03-24T07:50:57.652Z,38.23
2019-03-24T07:53:26.811Z,52.47
2019-03-24T07:55:55.920Z,52.00
2019-03-24T07:58:25.053Z,50.37
2019-03-24T08:00:54.289Z,45.93
2019-03-24T08:03:23.779Z,48.37
2019-03-24T08:05:53.869Z,50.70
2019-03-24T08:08:22.936Z,50.67
2019-03-24T08:10:52.065Z,46.87
2019-03-24T08:13:20.975Z,42.13
2019-03-24T08:15:50.499Z,52.40
2019-03-24T08:18:29.527Z,58.00
2019-03-24T08:20:50.353Z,51.83
2019-03-24T08:23:19.972Z,40.23
2019-03-24T08:25:49.091Z,41.70
2019-03-24T08:28:18.252Z,48.03
2019-03-24T08:30:47.598Z,56.87
2019-03-24T08:33:18.572Z,56.80
2019-03-24T08:35:47.713Z,61.93
2019-03-24T08:38:17.332Z,56.73
2019-03-24T08:40:46.771Z,56.60
2019-03-24T08:43:15.789Z,52.33
2019-03-24T08:45:45.237Z,59.80
2019-03-24T08:48:14.408Z,60.50
2019-03-24T08:50:45.239Z,41.70
2019-03-24T08:53:14.349Z,62.67
2019-03-24T08:55:44.419Z,63.80
2019-03-24T08:58:13.678Z,63.80
2019-03-24T09:00:42.685Z,63.97
2019-03-24T09:03:14.237Z,49.53
2019-03-24T09:05:44.296Z,61.20
2019-03-24T09:08:15.779Z,60.80
2019-03-24T09:10:45.190Z,54.03
2019-03-24T09:13:14.376Z,64.40
2019-03-24T09:15:43.503Z,63.93
2019-03-24T09:18:13.288Z,57.30
2019-03-24T09:20:45.226Z,60.90
2019-03-24T09:23:22.399Z,63.67
2019-03-24T09:25:52.019Z,61.73
2019-03-24T09:28:21.564Z,69.13
2019-03-24T09:30:50.670Z,55.03
2019-03-24T09:33:20.267Z,58.67
2019-03-24T09:35:49.315Z,60.13
2019-03-24T09:38:18.460Z,56.37
2019-03-24T09:40:47.597Z,57.47
2019-03-24T09:43:16.947Z,52.60
2019-03-24T09:45:45.967Z,53.17
2019-03-24T09:48:15.122Z,47.80
2019-03-24T09:50:44.109Z,50.47
2019-03-24T09:53:13.562Z,57.17
2019-03-24T09:55:42.662Z,55.33
2019-03-24T09:58:12.726Z,51.10
2019-03-24T10:00:41.869Z,57.10
2019-03-24T10:03:12.099Z,55.07
2019-03-24T10:05:41.269Z,62.93
2019-03-24T10:08:10.399Z,49.50
2019-03-24T10:10:40.076Z,55.33
2019-03-24T10:13:09.291Z,52.53
2019-03-24T10:15:38.354Z,51.53
2019-03-24T10:18:08.091Z,45.00
2019-03-24T10:20:37.156Z,47.67
2019-03-24T10:23:06.337Z,47.40
2019-03-24T10:25:35.707Z,51.63
2019-03-24T10:28:04.796Z,45.03
2019-03-24T10:30:34.205Z,52.23
2019-03-24T10:33:03.363Z,51.93
2019-03-24T10:35:32.964Z,56.67
2019-03-24T10:38:02.093Z,51.60
2019-03-24T10:40:32.452Z,54.30
2019-03-24T10:43:02.214Z,49.43
2019-03-24T10:45:31.355Z,96.47
2019-03-24T10:48:01.221Z,52.87
2019-03-24T10:50:30.794Z,75.07
2019-03-24T10:53:04.329Z,67.40
2019-03-24T10:55:36.152Z,54.57
2019-03-24T10:58:07.100Z,51.57
2019-03-24T11:00:40.493Z,71.07
2019-03-24T11:03:10.576Z,58.07
2019-03-24T11:05:39.866Z,49.73
2019-03-24T11:08:09.000Z,48.50
2019-03-24T11:10:38.314Z,61.90
2019-03-24T11:13:09.642Z,51.47
2019-03-24T11:15:38.921Z,62.07
2019-03-24T11:18:17.158Z,50.83
2019-03-24T11:21:03.266Z,49.50
2019-03-24T11:23:19.754Z,47.53
2019-03-24T11:26:07.714Z,52.87
2019-03-24T11:28:45.885Z,44.83
2019-03-24T11:31:23.327Z,41.40
2019-03-24T11:33:52.336Z,55.97
2019-03-24T11:36:23.222Z,52.73
2019-03-24T11:38:52.194Z,51.27
2019-03-24T11:41:21.303Z,50.50
2019-03-24T11:43:50.960Z,51.93
2019-03-24T11:46:20.726Z,43.33
2019-03-24T11:48:49.838Z,55.03
2019-03-24T11:51:20.870Z,58.17
2019-03-24T11:53:50.830Z,47.23
2019-03-24T11:56:26.326Z,52.50
2019-03-24T11:58:55.148Z,47.87
2019-03-24T12:01:25.516Z,48.33
2019-03-24T12:03:55.039Z,55.17
2019-03-24T12:06:24.229Z,50.47
2019-03-24T12:08:53.548Z,47.40
2019-03-24T12:11:22.632Z,50.07
2019-03-24T12:13:52.410Z,66.23
2019-03-24T12:16:26.610Z,54.53
2019-03-24T12:18:56.369Z,48.40
2019-03-24T12:21:27.753Z,41.40
2019-03-24T12:23:57.885Z,45.20
2019-03-24T12:26:27.035Z,45.23
2019-03-24T12:28:57.413Z,50.60
2019-03-24T12:31:30.973Z,47.20
2019-03-24T12:34:04.894Z,48.90
2019-03-24T12:36:43.202Z,46.63
2019-03-24T12:39:12.486Z,46.67
2019-03-24T12:41:41.940Z,46.33
2019-03-24T12:44:11.336Z,45.17
2019-03-24T12:46:40.941Z,51.73
2019-03-24T12:49:14.472Z,43.70
2019-03-24T12:51:46.546Z,48.80
2019-03-24T12:54:21.394Z,43.60
2019-03-24T12:56:54.565Z,48.27
2019-03-24T12:59:25.887Z,42.73
2019-03-24T13:01:58.365Z,49.47
2019-03-24T13:04:27.819Z,47.07
2019-03-24T13:06:59.056Z,44.80
2019-03-24T13:09:33.757Z,47.60
2019-03-24T13:12:04.032Z,55.43
2019-03-24T13:14:38.130Z,37.47
2019-03-24T13:17:08.126Z,50.63
2019-03-24T13:19:38.405Z,51.70
2019-03-24T13:22:08.731Z,48.60
2019-03-24T13:24:38.401Z,45.50
2019-03-24T13:27:09.800Z,50.57
2019-03-24T13:29:47.916Z,49.00
2019-03-24T13:32:21.538Z,50.30
2019-03-24T13:34:53.036Z,49.33
2019-03-24T13:37:28.202Z,45.67
2019-03-24T13:40:19.634Z,46.73
2019-03-24T13:42:52.801Z,46.17
2019-03-24T13:45:24.364Z,49.97
2019-03-24T13:47:56.429Z,41.00
2019-03-24T13:50:31.421Z,51.17
2019-03-24T13:53:00.334Z,52.20
2019-03-24T13:55:30.719Z,32.10
2019-03-24T13:58:01.315Z,41.07
2019-03-24T14:00:30.588Z,27.43
2019-03-24T14:03:01.387Z,37.67
2019-03-24T14:05:38.811Z,31.90
2019-03-24T14:08:08.105Z,41.00
2019-03-24T14:10:37.155Z,35.30
2019-03-24T14:13:06.925Z,40.20
2019-03-24T14:15:36.025Z,37.37
2019-03-24T14:18:05.042Z,32.73
2019-03-24T14:20:42.770Z,36.30
2019-03-24T14:23:05.143Z,41.03
2019-03-24T14:25:34.324Z,38.03
2019-03-24T14:28:03.630Z,42.23
2019-03-24T14:30:42.740Z,37.23
2019-03-24T14:33:12.045Z,43.40
2019-03-24T14:35:42.028Z,37.03
2019-03-24T14:38:11.580Z,57.73
2019-03-24T14:40:41.424Z,33.43
2019-03-24T14:43:11.974Z,35.37
2019-03-24T14:45:42.307Z,34.93
2019-03-24T14:48:11.557Z,34.13
2019-03-24T14:50:53.597Z,36.73
2019-03-24T14:53:13.865Z,36.50
2019-03-24T14:55:43.222Z,34.90
2019-03-24T14:58:12.440Z,34.43
2019-03-24T15:00:42.359Z,30.80
2019-03-24T15:03:11.456Z,39.70
2019-03-24T15:05:41.641Z,34.20
2019-03-24T15:08:11.131Z,37.60
2019-03-24T15:10:40.621Z,33.47
2019-03-24T15:13:14.482Z,33.27
2019-03-24T15:15:46.500Z,37.23
2019-03-24T15:18:18.079Z,33.10
2019-03-24T15:20:49.758Z,40.83
2019-03-24T15:23:18.957Z,32.63
2019-03-24T15:25:48.076Z,41.03
2019-03-24T15:28:17.310Z,29.17
2019-03-24T15:30:50.173Z,34.03
2019-03-24T15:33:19.690Z,36.70
2019-03-24T15:35:48.816Z,39.10
2019-03-24T15:38:17.838Z,33.87
2019-03-24T15:40:49.435Z,39.67
2019-03-24T15:43:18.964Z,32.70
2019-03-24T15:45:49.620Z,36.17
2019-03-24T15:48:19.674Z,42.60
2019-03-24T15:50:49.544Z,32.27
2019-03-24T15:53:22.649Z,32.77
2019-03-24T15:55:52.544Z,32.80
2019-03-24T15:58:22.384Z,33.50
2019-03-24T16:00:52.736Z,38.93
2019-03-24T16:03:22.123Z,36.10
2019-03-24T16:05:51.235Z,45.93
2019-03-24T16:08:20.589Z,30.97
2019-03-24T16:10:49.821Z,39.20
2019-03-24T16:13:22.768Z,32.57
2019-03-24T16:15:52.192Z,39.10
2019-03-24T16:18:23.318Z,34.40
2019-03-24T16:20:53.108Z,37.93
2019-03-24T16:23:23.863Z,34.60
2019-03-24T16:25:55.677Z,46.03
2019-03-24T16:28:24.524Z,34.90
2019-03-24T16:30:54.048Z,36.07
2019-03-24T16:33:23.896Z,36.23
2019-03-24T16:35:53.019Z,32.30
2019-03-24T16:38:22.120Z,34.90
2019-03-24T16:40:52.268Z,42.33
2019-03-24T16:43:24.057Z,33.70
2019-03-24T16:45:53.208Z,35.23
2019-03-24T16:48:23.294Z,40.03
2019-03-24T16:50:53.609Z,35.83
2019-03-24T16:53:23.012Z,33.33
2019-03-24T16:55:52.113Z,38.70
2019-03-24T16:58:21.217Z,35.00
2019-03-24T17:00:50.467Z,33.57
2019-03-24T17:03:20.161Z,34.07
2019-03-24T17:05:49.864Z,34.87
2019-03-24T17:08:19.067Z,42.03
2019-03-24T17:10:48.956Z,35.13
2019-03-24T17:13:18.132Z,38.47
2019-03-24T17:15:47.883Z,64.97
2019-03-24T17:18:17.256Z,62.27
2019-03-24T17:20:46.502Z,85.10
2019-03-24T17:23:16.966Z,178.97
2019-03-24T17:25:46.880Z,59.23
2019-03-24T17:28:16.137Z,61.73
2019-03-24T17:30:46.092Z,103.43
2019-03-24T17:33:16.493Z,130.07
2019-03-24T17:35:46.702Z,353.53
2019-03-24T17:38:16.111Z,56.53
2019-03-24T17:40:46.102Z,53.57
2019-03-24T17:43:16.652Z,72.30
2019-03-24T17:45:46.335Z,55.67
2019-03-24T17:48:17.235Z,62.30
2019-03-24T17:50:54.938Z,90.23
2019-03-24T17:53:28.023Z,66.47
2019-03-24T17:55:57.370Z,116.23
2019-03-24T17:58:26.495Z,66.30
2019-03-24T18:00:57.671Z,77.30
2019-03-24T18:03:28.771Z,149.83
2019-03-24T18:05:59.722Z,64.83
2019-03-24T18:08:28.997Z,56.23
2019-03-24T18:10:58.348Z,61.07
2019-03-24T18:13:28.341Z,51.07
2019-03-24T18:15:57.691Z,51.90
2019-03-24T18:18:27.028Z,52.23
2019-03-24T18:20:57.391Z,66.03
2019-03-24T18:23:26.632Z,55.80
2019-03-24T18:25:56.221Z,56.23
2019-03-24T18:28:26.726Z,57.73
2019-03-24T18:30:56.404Z,64.23
2019-03-24T18:33:26.852Z,57.53
2019-03-24T18:35:56.414Z,57.57
2019-03-24T18:38:26.915Z,61.00
2019-03-24T18:40:59.422Z,56.77
2019-03-24T18:43:30.084Z,56.97
2019-03-24T18:46:01.573Z,55.50
2019-03-24T18:48:30.842Z,55.53
2019-03-24T18:51:03.999Z,57.60
2019-03-24T18:53:33.646Z,65.10
2019-03-24T18:56:04.311Z,54.33
2019-03-24T18:58:34.810Z,59.30
2019-03-24T19:01:05.406Z,61.47
2019-03-24T19:03:35.383Z,62.93
2019-03-24T19:06:09.605Z,58.87
2019-03-24T19:08:40.002Z,61.80
2019-03-24T19:11:09.913Z,61.20
2019-03-24T19:13:40.556Z,64.60
2019-03-24T19:16:10.308Z,60.83
2019-03-24T19:18:40.639Z,58.17
2019-03-24T19:21:09.960Z,56.20
2019-03-24T19:23:39.432Z,60.73
2019-03-24T19:26:09.081Z,54.87
2019-03-24T19:28:40.177Z,56.43
2019-03-24T19:31:09.600Z,54.93
2019-03-24T19:33:40.948Z,59.33
2019-03-24T19:36:10.504Z,55.67
2019-03-24T19:38:40.029Z,58.13
2019-03-24T19:41:09.381Z,59.00
2019-03-24T19:43:39.888Z,61.77
2019-03-24T19:46:09.494Z,59.07
2019-03-24T19:48:41.337Z,61.60
2019-03-24T19:51:11.117Z,62.47
2019-03-24T19:53:40.951Z,62.90
2019-03-24T19:56:10.523Z,60.53
2019-03-24T19:58:40.669Z,62.40
2019-03-24T20:01:11.761Z,55.77
2019-03-24T20:03:45.029Z,56.23
2019-03-24T20:06:15.298Z,57.83
2019-03-24T20:08:44.804Z,74.20
2019-03-24T20:11:14.521Z,64.17
2019-03-24T20:13:44.086Z,62.40
2019-03-24T20:19:29.988Z,68.20
2019-03-24T20:22:13.026Z,53.40
2019-03-24T20:24:42.619Z,66.67
2019-03-24T20:27:12.133Z,61.23
2019-03-24T20:29:41.678Z,57.63
2019-03-24T20:32:11.155Z,62.13
2019-03-24T20:34:42.741Z,58.93
2019-03-24T20:37:12.405Z,57.63
2019-03-24T20:39:52.989Z,51.70
2019-03-24T20:42:22.745Z,55.87
2019-03-24T20:44:54.119Z,49.00
2019-03-24T20:47:23.595Z,48.73
2019-03-24T20:49:53.205Z,36.43
2019-03-24T20:52:25.925Z,43.77
2019-03-24T20:54:56.075Z,37.30
2019-03-24T20:57:28.007Z,36.47
2019-03-24T20:59:59.569Z,37.87
2019-03-24T21:02:29.182Z,39.40
2019-03-24T21:05:02.676Z,32.97
2019-03-24T21:07:32.411Z,36.53
2019-03-24T21:10:02.222Z,29.33
2019-03-24T21:12:32.261Z,28.90
2019-03-24T21:15:04.818Z,28.23
2019-03-24T21:17:34.719Z,25.97
2019-03-24T21:20:04.106Z,24.53
2019-03-24T21:22:33.535Z,28.10
2019-03-24T21:25:03.124Z,32.33
2019-03-24T21:27:36.694Z,28.03
2019-03-24T21:30:11.493Z,22.77
2019-03-24T21:32:41.673Z,30.03
2019-03-24T21:35:10.970Z,24.97
2019-03-24T21:37:42.587Z,21.30
2019-03-24T21:40:11.920Z,20.80
2019-03-24T21:42:41.155Z,21.77
2019-03-24T21:45:10.376Z,22.23
2019-03-24T21:47:39.710Z,18.20
2019-03-24T21:50:10.378Z,16.70
2019-03-24T21:52:40.186Z,17.30
2019-03-24T21:55:09.412Z,20.10
2019-03-24T21:57:39.097Z,13.63
2019-03-24T22:00:21.344Z,16.37
2019-03-24T22:03:02.361Z,15.40
2019-03-24T22:05:31.650Z,13.07
2019-03-24T22:08:00.898Z,15.97
2019-03-24T22:10:30.034Z,20.00
2019-03-24T22:12:59.711Z,19.53
2019-03-24T22:15:29.979Z,18.93
2019-03-24T22:17:59.371Z,19.83
2019-03-24T22:20:28.654Z,21.77
2019-03-24T22:22:57.677Z,19.10
2019-03-24T22:25:27.901Z,17.43
2019-03-24T22:28:14.545Z,20.20
2019-03-24T22:30:43.714Z,21.03
2019-03-24T22:33:13.745Z,17.47
2019-03-24T22:35:47.182Z,18.50
2019-03-24T22:38:16.543Z,21.73
2019-03-24T22:40:45.603Z,17.87
2019-03-24T22:43:14.802Z,20.50
2019-03-24T22:45:57.210Z,21.37
2019-03-24T22:48:31.421Z,24.10
2019-03-24T22:51:03.666Z,21.93
2019-03-24T22:53:47.366Z,20.33
2019-03-24T22:56:16.666Z,18.37
2019-03-24T22:58:47.425Z,18.43
2019-03-24T23:01:17.655Z,22.63
2019-03-24T23:03:55.565Z,17.97
2019-03-24T23:06:24.624Z,20.87
2019-03-24T23:08:57.039Z,21.23
2019-03-24T23:11:28.236Z,21.70
2019-03-24T23:17:43.983Z,21.73
2019-03-24T23:20:13.693Z,24.17
2019-03-24T23:22:42.973Z,26.17
2019-03-24T23:25:12.022Z,23.77
2019-03-24T23:27:41.804Z,24.30
2019-03-24T23:30:11.196Z,19.63
2019-03-24T23:32:40.387Z,24.50
2019-03-24T23:35:09.813Z,24.43
2019-03-24T23:37:38.949Z,20.87
2019-03-24T23:40:07.985Z,23.07
2019-03-24T23:42:37.254Z,21.10
2019-03-24T23:45:06.882Z,21.20
2019-03-24T23:47:36.438Z,26.27
2019-03-24T23:50:06.305Z,22.33
2019-03-24T23:52:35.432Z,29.17
2019-03-24T23:55:06.039Z,22.00
2019-03-24T23:57:35.155Z,23.97
